Time;durP1;ratioP1;P1;durP2;ratioP2;P2;SDS_P1;SDS_P2;PMS_P1;PMS_P2;Temp;Humidity;BMP_temperature;BMP_pressure;BME280_temperature;BME280_humidity;BME280_pressure;Samples;Min_cycle;Max_cycle;Signal;HPM_P1;HPM_P2
2021/07/30 00:01:11;;;;;;;7.28;5.10;;;;;;;26.96;48.06;98380.94;1759897;80;21483;-55
2021/07/30 00:03:36;;;;;;;7.17;5.05;;;;;;;26.96;47.79;98385.11;1766031;80;21246;-57
2021/07/30 00:06:03;;;;;;;7.10;5.13;;;;;;;26.96;47.71;98391.33;1715577;83;21050;-56
2021/07/30 00:08:29;;;;;;;7.08;5.05;;;;;;;26.94;47.72;98389.69;1689108;84;21088;-55
2021/07/30 00:10:55;;;;;;;5.57;5.00;;;;;;;26.93;47.67;98392.37;1713312;83;21040;-56
2021/07/30 00:13:21;;;;;;;5.67;4.83;;;;;;;26.89;47.66;98392.63;1694686;83;20987;-56
2021/07/30 00:15:47;;;;;;;6.35;4.75;;;;;;;26.88;47.63;98392.52;1696373;84;20987;-56
2021/07/30 00:18:13;;;;;;;5.80;5.03;;;;;;;26.88;47.63;98395.94;1734177;82;21581;-55
2021/07/30 00:20:43;;;;;;;6.60;5.33;;;;;;;26.86;47.62;98395.05;1746841;82;21701;-57
2021/07/30 00:23:09;;;;;;;5.87;4.62;;;;;;;26.86;47.63;98395.69;1734553;82;21582;-57
2021/07/30 00:25:35;;;;;;;5.33;4.83;;;;;;;26.86;47.63;98397.09;1719816;83;20979;-55
2021/07/30 00:28:02;;;;;;;5.50;5.00;;;;;;;26.83;47.61;98395.34;1710798;83;21058;-57
2021/07/30 00:30:28;;;;;;;6.05;4.92;;;;;;;26.81;47.61;98390.91;1708585;83;21010;-54
2021/07/30 00:32:54;;;;;;;5.37;4.85;;;;;;;26.79;47.62;98390.80;1711042;83;22238;-57
2021/07/30 00:35:20;;;;;;;6.43;5.00;;;;;;;26.78;47.73;98389.27;1710053;83;21022;-55
2021/07/30 00:37:48;;;;;;;6.03;5.20;;;;;;;26.77;47.73;98391.20;1711371;83;21094;-57
2021/07/30 00:40:14;;;;;;;5.70;5.15;;;;;;;26.76;47.69;98389.05;1715695;83;21090;-56
2021/07/30 00:42:48;;;;;;;5.50;4.80;;;;;;;26.75;47.69;98394.48;1703388;83;21062;-57
2021/07/30 00:45:14;;;;;;;6.08;4.95;;;;;;;26.75;47.74;98386.77;1767092;81;20998;-53
2021/07/30 00:47:42;;;;;;;6.50;5.60;;;;;;;26.72;47.83;98389.95;1767191;81;21030;-55
2021/07/30 00:50:09;;;;;;;5.40;4.90;;;;;;;26.71;48.00;98391.84;1767940;81;20990;-57
2021/07/30 00:52:38;;;;;;;5.92;4.55;;;;;;;26.65;48.15;98386.30;1765417;81;21658;-53
2021/07/30 00:55:07;;;;;;;5.35;4.85;;;;;;;26.64;48.23;98386.84;1729190;81;22264;-55
2021/07/30 00:57:50;;;;;;;5.15;4.60;;;;;;;26.62;48.31;98390.13;1765660;81;21515;-54
2021/07/30 01:00:09;;;;;;;5.65;5.15;;;;;;;26.60;48.36;98384.33;1759636;81;21019;-55
2021/07/30 01:02:38;;;;;;;5.53;5.00;;;;;;;26.56;48.47;98384.58;1729769;81;21613;-54
2021/07/30 01:05:09;;;;;;;6.40;4.83;;;;;;;26.55;48.39;98387.90;1761868;81;21057;-52
2021/07/30 01:07:38;;;;;;;6.22;5.08;;;;;;;26.53;48.32;98387.65;1767041;81;21035;-55
2021/07/30 01:10:06;;;;;;;6.35;4.90;;;;;;;26.54;48.24;98382.19;1766127;81;21030;-56
2021/07/30 01:12:33;;;;;;;7.10;5.17;;;;;;;26.52;48.30;98379.19;1765799;81;21104;-55
2021/07/30 01:15:01;;;;;;;5.97;5.42;;;;;;;26.52;48.24;98378.55;1737727;81;22166;-57
2021/07/30 01:17:27;;;;;;;5.62;5.12;;;;;;;26.52;48.27;98384.75;1764932;81;21065;-55
2021/07/30 01:19:58;;;;;;;6.12;5.53;;;;;;;26.52;48.26;98380.58;1767695;80;20995;-55
2021/07/30 01:22:30;;;;;;;6.10;5.50;;;;;;;26.51;48.28;98377.66;1761411;81;21069;-56
2021/07/30 01:24:59;;;;;;;6.42;5.65;;;;;;;26.48;48.33;98375.23;1765924;81;20995;-55
2021/07/30 01:27:27;;;;;;;6.60;5.05;;;;;;;26.48;48.35;98379.41;1735944;81;21057;-55
2021/07/30 01:29:55;;;;;;;5.87;5.28;;;;;;;26.47;48.36;98375.77;1765459;81;21089;-54
2021/07/30 01:32:23;;;;;;;6.42;5.83;;;;;;;26.46;48.34;98381.19;1764479;81;21645;-58
2021/07/30 01:34:49;;;;;;;6.08;5.17;;;;;;;26.43;48.38;98374.62;1767073;81;21333;-56
2021/07/30 01:37:15;;;;;;;7.10;5.57;;;;;;;26.42;48.39;98378.69;1767422;81;21061;-55
2021/07/30 01:39:42;;;;;;;6.15;5.55;;;;;;;26.41;48.47;98374.40;1762401;81;21086;-55
2021/07/30 01:42:08;;;;;;;7.07;5.93;;;;;;;26.39;48.56;98378.32;1767576;80;21089;-55
2021/07/30 01:44:34;;;;;;;7.08;6.12;;;;;;;26.37;48.61;98376.68;1766811;81;20979;-56
2021/07/30 01:47:00;;;;;;;7.40;6.70;;;;;;;26.35;48.81;98373.64;1765928;81;21034;-54
2021/07/30 01:49:26;;;;;;;6.83;6.13;;;;;;;26.32;49.06;98376.81;1766753;81;21055;-53
2021/07/30 01:51:51;;;;;;;8.27;7.17;;;;;;;26.30;49.28;98371.64;1764642;81;21128;-54
2021/07/30 01:54:18;;;;;;;7.43;6.73;;;;;;;26.28;49.45;98377.73;1767351;81;21638;-57
2021/07/30 01:56:44;;;;;;;7.78;6.70;;;;;;;26.28;49.57;98378.37;1767952;81;21035;-54
2021/07/30 01:59:14;;;;;;;8.27;6.97;;;;;;;26.27;49.67;98374.84;1765402;81;20974;-55
2021/07/30 02:01:40;;;;;;;7.72;6.92;;;;;;;26.24;49.72;98367.48;1765990;81;21601;-52
2021/07/30 02:04:06;;;;;;;7.90;6.90;;;;;;;26.24;49.81;98367.48;1760412;80;20956;-55
2021/07/30 02:06:32;;;;;;;7.83;7.03;;;;;;;26.24;49.84;98366.73;1766172;81;21085;-55
2021/07/30 02:09:00;;;;;;;7.53;6.75;;;;;;;26.23;49.86;98369.41;1765406;81;21662;-55
2021/07/30 02:11:26;;;;;;;7.83;7.10;;;;;;;26.23;49.90;98377.13;1765271;81;21010;-55
2021/07/30 02:16:37;;;;;;;9.05;6.87;;;;;;;26.22;49.94;98373.45;1766606;81;21038;-55
2021/07/30 02:19:03;;;;;;;;;;;;;;;26.21;49.97;98374.72;1765916;81;21488;-57
2021/07/30 02:21:29;;;;;;;7.47;6.78;;;;;;;26.17;49.98;98375.00;1765075;81;20136;-55
2021/07/30 02:23:54;;;;;;;8.90;8.10;;;;;;;26.18;50.03;98379.28;1770330;81;20991;-54
2021/07/30 02:26:20;;;;;;;9.47;7.40;;;;;;;26.18;50.00;98380.68;1766008;81;20994;-56
2021/07/30 02:28:46;;;;;;;7.92;7.12;;;;;;;26.18;50.04;98374.36;1766335;81;20947;-53
2021/07/30 02:31:12;;;;;;;8.40;7.53;;;;;;;26.15;50.02;98376.78;1766716;81;21124;-56
2021/07/30 02:33:38;;;;;;;8.07;7.20;;;;;;;26.12;50.08;98377.92;1765303;81;21050;-54
2021/07/30 02:36:09;;;;;;;8.10;7.30;;;;;;;26.13;50.10;98375.89;1766156;81;20978;-55
2021/07/30 02:38:32;;;;;;;7.40;6.70;;;;;;;26.13;50.11;98382.84;1763489;81;21046;-56
2021/07/30 02:41:00;;;;;;;7.87;7.17;;;;;;;26.12;50.15;98376.53;1766868;81;21098;-54
2021/07/30 02:43:26;;;;;;;8.33;7.40;;;;;;;26.10;50.16;98380.45;1766081;81;21622;-55
2021/07/30 02:45:53;;;;;;;7.70;6.90;;;;;;;26.11;50.17;98382.62;1763498;81;21000;-57
2021/07/30 02:48:18;;;;;;;8.20;7.40;;;;;;;26.08;50.16;98381.61;1763613;81;21026;-56
2021/07/30 02:50:44;;;;;;;7.73;7.03;;;;;;;26.08;50.12;98381.61;1771326;81;21535;-55
2021/07/30 02:53:10;;;;;;;7.70;7.00;;;;;;;26.06;50.07;98378.58;1771712;81;21156;-55
2021/07/30 02:55:36;;;;;;;7.83;7.03;;;;;;;26.05;50.06;98374.27;1768181;81;21090;-55
2021/07/30 02:58:02;;;;;;;7.87;6.97;;;;;;;26.04;50.13;98372.77;1772348;81;21487;-54
2021/07/30 03:00:27;;;;;;;8.60;7.17;;;;;;;26.03;50.17;98367.72;1770746;81;21019;-57
2021/07/30 03:02:53;;;;;;;7.77;6.97;;;;;;;26.02;50.20;98366.94;1767982;80;21383;-55
2021/07/30 03:05:19;;;;;;;7.70;6.83;;;;;;;26.02;50.24;98363.41;1765568;81;21042;-55
2021/07/30 03:07:46;;;;;;;8.68;6.85;;;;;;;26.00;50.22;98363.16;1762425;81;21666;-56
2021/07/30 03:10:12;;;;;;;7.30;6.60;;;;;;;26.01;50.22;98370.25;1766587;81;21364;-54
2021/07/30 03:12:38;;;;;;;8.60;6.63;;;;;;;26.00;50.15;98371.50;1764247;81;21121;-55
2021/07/30 03:15:06;;;;;;;8.10;7.07;;;;;;;25.98;50.07;98365.71;1772607;81;20947;-55
2021/07/30 03:17:31;;;;;;;8.60;6.83;;;;;;;25.97;50.06;98371.13;1761990;80;21049;-55
2021/07/30 03:19:59;;;;;;;7.90;7.10;;;;;;;25.95;50.07;98369.52;1768685;80;21014;-55
2021/07/30 03:22:27;;;;;;;7.72;6.92;;;;;;;25.94;50.15;98372.16;1754522;81;21015;-54
2021/07/30 03:24:52;;;;;;;8.33;6.80;;;;;;;25.94;50.27;98372.16;1777873;81;21041;-55
2021/07/30 03:27:21;;;;;;;7.72;7.00;;;;;;;25.94;50.40;98374.94;1752522;81;21003;-55
2021/07/30 03:29:47;;;;;;;8.60;6.87;;;;;;;25.94;50.46;98372.91;1747056;82;21039;-57
2021/07/30 03:32:13;;;;;;;8.17;7.33;;;;;;;25.96;50.47;98375.20;1753716;81;20991;-54
2021/07/30 03:34:39;;;;;;;8.40;7.27;;;;;;;25.95;50.53;98381.40;1775832;81;21105;-55
2021/07/30 03:37:04;;;;;;;7.90;7.10;;;;;;;25.96;50.57;98379.37;1778032;81;21753;-55
2021/07/30 03:39:31;;;;;;;8.47;7.53;;;;;;;25.97;50.62;98376.70;1777058;81;21066;-55
2021/07/30 03:41:57;;;;;;;9.05;7.12;;;;;;;25.98;50.63;98375.45;1777659;81;21544;-56
2021/07/30 03:44:23;;;;;;;8.23;7.00;;;;;;;25.97;50.64;98371.13;1777757;81;21052;-54
2021/07/30 03:46:49;;;;;;;7.97;7.00;;;;;;;25.98;50.62;98371.27;1763884;80;21058;-56
2021/07/30 03:49:15;;;;;;;9.00;7.40;;;;;;;25.97;50.69;98380.23;1767678;81;20962;-55
2021/07/30 03:51:41;;;;;;;;;;;;;;;25.98;50.88;98376.20;1779615;80;21018;-54
2021/07/30 03:54:08;;;;;;;9.03;7.17;;;;;;;26.00;50.91;98371.50;1777220;81;20136;-54
2021/07/30 03:56:42;;;;;;;7.53;6.67;;;;;;;26.07;50.93;98375.16;1775525;81;20939;-52
2021/07/30 03:59:08;;;;;;;8.08;6.62;;;;;;;26.13;50.83;98373.86;1772375;81;21018;-54
2021/07/30 04:01:38;;;;;;;8.90;7.00;;;;;;;26.17;50.77;98372.22;1771791;81;21006;-54
2021/07/30 04:04:02;;;;;;;8.48;7.10;;;;;;;26.21;50.78;98382.44;1770954;80;21105;-52
2021/07/30 04:06:28;;;;;;;7.85;6.95;;;;;;;26.22;50.74;98382.58;1772654;81;21010;-56
2021/07/30 04:08:54;;;;;;;8.80;7.03;;;;;;;26.23;50.78;98382.69;1771588;81;21128;-55
2021/07/30 04:11:20;;;;;;;7.97;6.77;;;;;;;26.25;50.75;98380.16;1770898;80;20988;-53
2021/07/30 04:13:46;;;;;;;7.93;6.93;;;;;;;26.30;50.70;98379.38;1772439;80;21558;-55
2021/07/30 04:16:12;;;;;;;7.42;6.65;;;;;;;26.33;50.60;98376.95;1771398;80;21036;-56
2021/07/30 04:18:38;;;;;;;7.80;7.00;;;;;;;26.39;50.48;98376.93;1771755;81;21021;-53
2021/07/30 04:21:07;;;;;;;7.10;6.12;;;;;;;26.44;50.48;98375.40;1772993;81;20986;-54
2021/07/30 04:23:34;;;;;;;7.15;6.45;;;;;;;26.48;50.41;98377.27;1770961;81;21585;-55
2021/07/30 04:26:00;;;;;;;7.45;6.53;;;;;;;26.52;50.38;98373.62;1771245;81;21467;-52
2021/07/30 04:28:26;;;;;;;8.53;6.78;;;;;;;26.54;50.42;98375.98;1770767;81;21105;-54
2021/07/30 04:30:52;;;;;;;7.57;5.87;;;;;;;26.59;50.47;98376.48;1772723;81;21065;-56
2021/07/30 04:33:17;;;;;;;7.57;6.33;;;;;;;26.64;50.43;98379.23;1772831;81;21088;-55
2021/07/30 04:35:43;;;;;;;8.10;6.53;;;;;;;26.67;50.29;98371.23;1770744;81;21568;-54
2021/07/30 04:38:09;;;;;;;8.10;6.50;;;;;;;26.70;50.20;98372.98;1771908;81;20982;-55
2021/07/30 04:40:38;;;;;;;7.17;6.43;;;;;;;26.71;50.21;98374.52;1771696;81;21014;-53
2021/07/30 04:43:07;;;;;;;7.28;6.40;;;;;;;26.74;50.21;98377.66;1771894;81;20943;-55
2021/07/30 04:45:39;;;;;;;7.47;6.22;;;;;;;26.75;50.32;98381.95;1752390;80;21089;-56
2021/07/30 04:48:06;;;;;;;7.05;6.35;;;;;;;26.75;50.56;98381.95;1770751;81;21010;-52
2021/07/30 04:50:32;;;;;;;6.95;6.25;;;;;;;26.77;50.56;98378.66;1771536;81;21041;-56
2021/07/30 04:52:58;;;;;;;8.18;6.58;;;;;;;26.79;50.48;98383.84;1773211;81;20995;-53
2021/07/30 04:55:23;;;;;;;8.80;6.37;;;;;;;26.81;50.47;98376.98;1770266;81;21073;-56
2021/07/30 04:57:50;;;;;;;8.00;6.27;;;;;;;26.84;50.46;98374.55;1769758;80;21034;-61
2021/07/30 05:00:19;;;;;;;7.92;6.40;;;;;;;26.84;50.45;98378.09;1725982;81;21323;-57
2021/07/30 05:02:45;;;;;;;11.70;6.67;;;;;;;26.88;50.40;98372.26;1770122;80;21669;-56
2021/07/30 05:05:10;;;;;;;8.23;6.60;;;;;;;26.95;50.36;98374.47;1772020;80;21124;-51
2021/07/30 05:07:38;;;;;;;7.03;6.33;;;;;;;26.94;50.27;98375.76;1772154;80;21021;-54
2021/07/30 05:10:05;;;;;;;8.38;6.55;;;;;;;26.90;50.24;98369.69;1772050;81;21053;-54
2021/07/30 05:12:31;;;;;;;7.33;6.00;;;;;;;26.86;50.30;98374.80;1773291;80;20986;-56
2021/07/30 05:14:57;;;;;;;6.92;6.00;;;;;;;26.81;50.45;98376.98;1774010;81;21089;-61
2021/07/30 05:17:23;;;;;;;6.65;5.95;;;;;;;26.87;50.45;98367.94;1771691;80;21049;-61
2021/07/30 05:19:49;;;;;;;7.00;6.13;;;;;;;26.94;50.39;98366.75;1774481;80;21090;-56
2021/07/30 05:22:15;;;;;;;7.97;5.70;;;;;;;27.04;50.42;98371.38;1771568;80;21568;-59
2021/07/30 05:24:40;;;;;;;9.10;6.23;;;;;;;27.12;50.35;98365.37;1772638;80;21049;-56
2021/07/30 05:27:06;;;;;;;7.90;6.20;;;;;;;27.18;50.21;98364.70;1773861;80;21033;-53
2021/07/30 05:29:32;;;;;;;7.13;6.43;;;;;;;27.17;50.29;98361.03;1772931;81;21137;-50
2021/07/30 05:31:58;;;;;;;10.35;6.72;;;;;;;27.09;50.43;98360.84;1772888;80;21488;-54
2021/07/30 05:34:24;;;;;;;7.93;6.17;;;;;;;27.01;50.63;98369.00;1770412;80;21013;-54
2021/07/30 05:36:52;;;;;;;7.20;6.50;;;;;;;26.96;50.77;98372.58;1770341;81;21082;-54
2021/07/30 05:39:18;;;;;;;7.50;6.12;;;;;;;26.90;50.93;98368.30;1775002;80;21038;-55
2021/07/30 05:41:44;;;;;;;8.23;6.47;;;;;;;26.86;51.06;98370.63;1774545;80;21050;-55
2021/07/30 05:44:17;;;;;;;7.23;6.07;;;;;;;26.83;51.19;98364.69;1773737;80;21557;-53
2021/07/30 05:46:42;;;;;;;6.65;6.05;;;;;;;26.79;51.29;98365.73;1774556;81;21505;-57
2021/07/30 05:49:08;;;;;;;7.13;6.33;;;;;;;26.78;51.38;98361.41;1774300;81;21346;-56
2021/07/30 05:51:36;;;;;;;6.83;5.90;;;;;;;26.77;51.44;98369.66;1774051;80;21637;-55
2021/07/30 05:54:05;;;;;;;7.17;6.40;;;;;;;26.75;51.47;98363.09;1773125;80;21073;-55
2021/07/30 05:56:32;;;;;;;6.80;6.20;;;;;;;26.75;51.47;98362.45;1772158;81;21538;-55
2021/07/30 05:58:58;;;;;;;6.75;6.12;;;;;;;26.73;51.42;98360.81;1772446;80;21070;-54
2021/07/30 06:01:24;;;;;;;7.10;6.03;;;;;;;26.73;51.34;98371.20;1772143;81;21581;-54
2021/07/30 06:03:52;;;;;;;7.15;6.20;;;;;;;26.73;51.27;98362.20;1771788;81;20990;-50
2021/07/30 06:06:23;;;;;;;7.20;6.22;;;;;;;26.72;51.27;98369.70;1774593;81;21117;-53
2021/07/30 06:08:46;;;;;;;6.72;6.03;;;;;;;26.73;51.26;98366.38;1771985;81;21003;-53
2021/07/30 06:11:11;;;;;;;6.40;5.80;;;;;;;26.72;51.25;98365.52;1771339;80;21006;-53
2021/07/30 06:13:37;;;;;;;6.53;5.93;;;;;;;26.72;51.30;98369.05;1772276;80;20998;-54
2021/07/30 06:16:05;;;;;;;6.53;5.70;;;;;;;26.74;51.34;98365.77;1773752;80;21133;-55
2021/07/30 06:18:31;;;;;;;6.80;6.12;;;;;;;26.75;51.35;98371.45;1752795;81;21078;-52
2021/07/30 06:20:57;;;;;;;7.20;5.80;;;;;;;26.75;51.37;98366.62;1774798;80;21502;-53
2021/07/30 06:23:23;;;;;;;6.80;6.10;;;;;;;26.77;51.44;98373.09;1774976;80;21013;-53
2021/07/30 06:25:48;;;;;;;6.67;5.90;;;;;;;26.82;51.43;98368.73;1772021;80;21542;-54
2021/07/30 06:28:14;;;;;;;6.40;5.80;;;;;;;26.87;51.39;98363.77;1774821;81;21033;-57
2021/07/30 06:30:40;;;;;;;6.50;5.63;;;;;;;26.92;51.33;98368.55;1773674;80;21026;-55
2021/07/30 06:33:10;;;;;;;8.43;6.13;;;;;;;26.96;51.27;98364.86;1774375;80;21066;-53
2021/07/30 06:35:35;;;;;;;6.62;5.97;;;;;;;27.00;51.21;98363.92;1774668;81;21042;-50
2021/07/30 06:38:01;;;;;;;6.97;6.27;;;;;;;27.04;51.12;98358.84;1770339;80;21617;-53
2021/07/30 06:40:27;;;;;;;6.50;5.90;;;;;;;27.07;51.10;98357.80;1770527;80;21037;-52
2021/07/30 06:42:53;;;;;;;6.40;5.47;;;;;;;27.10;51.01;98362.34;1770105;80;21440;-54
2021/07/30 06:45:19;;;;;;;5.93;5.37;;;;;;;27.12;50.97;98365.37;1775708;80;21439;-57
2021/07/30 06:47:45;;;;;;;6.30;5.70;;;;;;;27.15;50.93;98358.00;1776685;80;21041;-55
2021/07/30 06:50:11;;;;;;;6.00;5.50;;;;;;;27.17;50.91;98359.03;1779751;80;21097;-53
2021/07/30 06:52:37;;;;;;;5.75;5.20;;;;;;;27.21;50.89;98356.70;1777170;80;21535;-55
2021/07/30 06:55:04;;;;;;;5.93;5.33;;;;;;;27.20;50.85;98359.38;1783515;80;21134;-50
2021/07/30 06:57:31;;;;;;;5.90;5.40;;;;;;;27.21;50.86;98355.30;1779400;80;20911;-54
2021/07/30 07:00:01;;;;;;;6.10;5.50;;;;;;;27.23;50.79;98358.98;1777279;80;21002;-56
2021/07/30 07:02:28;;;;;;;6.67;5.25;;;;;;;27.27;50.76;98354.50;1777189;80;20950;-55
2021/07/30 07:04:53;;;;;;;6.00;5.40;;;;;;;27.26;50.71;98355.15;1782064;80;20935;-52
2021/07/30 07:07:19;;;;;;;5.87;5.27;;;;;;;27.28;50.66;98350.42;1781385;80;21057;-53
2021/07/30 07:09:45;;;;;;;5.40;4.90;;;;;;;27.27;50.63;98352.47;1779088;80;21922;-54
2021/07/30 07:12:11;;;;;;;5.53;4.97;;;;;;;27.28;50.56;98349.78;1780738;80;20958;-51
2021/07/30 07:14:36;;;;;;;5.80;5.20;;;;;;;27.30;50.53;98353.45;1780283;80;20997;-54
2021/07/30 07:17:04;;;;;;;7.40;5.27;;;;;;;27.30;50.48;98350.67;1777662;80;21589;-54
2021/07/30 07:19:30;;;;;;;5.62;5.00;;;;;;;27.31;50.53;98346.59;1780071;80;20943;-55
2021/07/30 07:21:56;;;;;;;5.47;4.97;;;;;;;27.32;50.49;98348.88;1778271;80;21409;-54
2021/07/30 07:24:22;;;;;;;6.73;5.37;;;;;;;27.36;50.49;98354.16;1783308;80;20923;-53
2021/07/30 07:26:48;;;;;;;5.72;5.12;;;;;;;27.36;50.49;98351.38;1780036;80;21013;-54
2021/07/30 07:29:14;;;;;;;5.27;4.77;;;;;;;27.36;50.44;98347.94;1781192;80;20978;-54
2021/07/30 07:31:41;;;;;;;6.87;5.33;;;;;;;27.35;50.34;98345.69;1782963;80;21053;-56
2021/07/30 07:34:07;;;;;;;5.42;4.92;;;;;;;27.36;50.25;98346.55;1779406;80;21057;-55
2021/07/30 07:36:33;;;;;;;5.40;4.87;;;;;;;27.36;50.15;98353.52;1779826;80;21518;-55
2021/07/30 07:38:59;;;;;;;6.30;5.20;;;;;;;27.36;50.09;98345.15;1783568;80;20959;-53
2021/07/30 07:41:25;;;;;;;5.57;5.07;;;;;;;27.38;50.09;98347.43;1782826;80;21149;-55
2021/07/30 07:43:50;;;;;;;5.30;4.80;;;;;;;27.40;50.00;98351.21;1779563;80;20979;-54
2021/07/30 07:46:17;;;;;;;6.28;5.00;;;;;;;27.42;49.64;98344.48;1784187;80;21670;-52
2021/07/30 07:48:43;;;;;;;5.75;5.25;;;;;;;27.47;49.32;98347.72;1781654;80;21040;-54
2021/07/30 07:51:09;;;;;;;5.83;5.20;;;;;;;27.49;49.32;98344.53;1781118;80;21010;-55
2021/07/30 07:53:35;;;;;;;5.30;4.80;;;;;;;27.50;48.66;98344.66;1780288;80;21838;-54
2021/07/30 07:56:03;;;;;;;5.90;4.65;;;;;;;27.51;48.46;98338.45;1781371;80;21337;-56
2021/07/30 07:58:30;;;;;;;5.20;4.70;;;;;;;27.53;48.36;98342.84;1783982;80;21025;-55
2021/07/30 08:00:56;;;;;;;5.20;4.75;;;;;;;27.55;48.48;98341.69;1781822;80;21057;-54
2021/07/30 08:03:21;;;;;;;6.93;4.80;;;;;;;27.55;48.15;98343.08;1780342;80;21037;-52
2021/07/30 08:05:47;;;;;;;5.40;4.90;;;;;;;27.57;47.67;98336.34;1780792;80;21108;-55
2021/07/30 08:08:13;;;;;;;5.17;4.67;;;;;;;27.56;47.43;98336.99;1778560;80;20981;-54
2021/07/30 08:10:39;;;;;;;6.37;4.67;;;;;;;27.56;47.52;98338.39;1784623;80;21163;-54
2021/07/30 08:13:05;;;;;;;5.73;4.20;;;;;;;27.59;47.47;98331.02;1779169;80;20997;-53
2021/07/30 08:15:30;;;;;;;5.20;4.70;;;;;;;27.57;47.56;98332.91;1781551;80;21054;-55
2021/07/30 08:17:56;;;;;;;4.93;4.43;;;;;;;27.56;47.45;98332.81;1783741;80;21030;-56
2021/07/30 08:20:22;;;;;;;4.93;4.53;;;;;;;27.57;47.54;98327.34;1786085;80;21456;-54
2021/07/30 08:22:48;;;;;;;5.00;4.37;;;;;;;27.57;47.85;98326.59;1780668;80;21135;-55
2021/07/30 08:25:14;;;;;;;5.03;4.53;;;;;;;27.55;48.02;98330.53;1781096;80;20930;-53
2021/07/30 08:27:40;;;;;;;5.13;4.63;;;;;;;27.56;48.07;98323.69;1780775;80;21030;-54
2021/07/30 08:30:06;;;;;;;5.10;4.60;;;;;;;27.58;48.03;98325.30;1781201;80;21574;-51
2021/07/30 08:32:33;;;;;;;5.20;4.50;;;;;;;27.58;48.06;98327.47;1782958;80;21026;-55
2021/07/30 08:34:59;;;;;;;;;;;;;;;27.57;48.12;98327.34;1785627;80;21524;-54
2021/07/30 08:37:25;;;;;;;5.05;4.65;;;;;;;27.55;48.20;98320.12;1783657;80;20104;-53
2021/07/30 08:39:51;;;;;;;4.97;4.47;;;;;;;27.59;48.13;98328.97;1784137;80;20938;-55
2021/07/30 08:42:17;;;;;;;5.07;4.57;;;;;;;27.57;48.16;98328.73;1786882;80;21065;-54
2021/07/30 08:44:43;;;;;;;5.12;4.67;;;;;;;27.59;48.01;98326.83;1782310;80;21054;-53
2021/07/30 08:47:09;;;;;;;5.70;5.10;;;;;;;27.59;47.97;98319.21;1773445;80;21049;-54
2021/07/30 08:49:35;;;;;;;4.75;4.35;;;;;;;27.60;47.90;98318.56;1772213;80;21213;-54
2021/07/30 08:52:14;;;;;;;5.63;4.80;;;;;;;27.62;47.78;98322.34;1753373;81;21077;-51
2021/07/30 08:54:37;;;;;;;5.12;4.62;;;;;;;27.63;47.78;98321.05;1770424;80;21097;-54
2021/07/30 08:57:10;;;;;;;5.35;4.85;;;;;;;27.65;47.97;98317.11;1771665;80;21014;-52
2021/07/30 08:59:38;;;;;;;5.03;4.47;;;;;;;27.66;47.46;98317.24;1771905;81;21403;-52
2021/07/30 09:02:04;;;;;;;5.90;4.40;;;;;;;27.67;47.54;98327.76;1773671;80;21014;-55
2021/07/30 09:04:30;;;;;;;5.23;4.40;;;;;;;27.64;47.81;98321.19;1772306;81;20998;-54
2021/07/30 09:06:56;;;;;;;5.00;4.50;;;;;;;27.62;47.96;98318.80;1773656;81;21006;-56
2021/07/30 09:09:22;;;;;;;5.30;4.33;;;;;;;27.64;47.74;98319.05;1773945;80;21014;-55
2021/07/30 09:11:53;;;;;;;5.13;4.63;;;;;;;27.65;47.83;98319.15;1772390;80;21077;-52
2021/07/30 09:14:25;;;;;;;4.92;4.42;;;;;;;27.65;47.70;98310.78;1771911;80;21062;-55
2021/07/30 09:16:56;;;;;;;5.87;4.72;;;;;;;27.65;47.60;98319.15;1768839;80;20998;-56
2021/07/30 09:19:20;;;;;;;5.00;4.50;;;;;;;27.66;47.61;98317.24;1743243;81;20971;-55
2021/07/30 09:21:46;;;;;;;4.92;4.42;;;;;;;27.67;47.49;98313.16;1774281;80;20994;-56
2021/07/30 09:24:16;;;;;;;4.63;4.23;;;;;;;27.71;47.55;98310.72;1772576;80;21050;-53
2021/07/30 09:26:53;;;;;;;4.70;4.30;;;;;;;27.72;47.23;98305.23;1774323;81;21003;-53
2021/07/30 09:29:25;;;;;;;5.05;4.35;;;;;;;27.73;47.36;98309.56;1772206;80;20975;-52
2021/07/30 09:31:55;;;;;;;5.75;4.40;;;;;;;27.71;47.36;98300.95;1774679;80;21038;-55
2021/07/30 09:34:43;;;;;;;4.45;4.05;;;;;;;27.68;47.40;98300.71;1774663;80;20936;-56
2021/07/30 09:37:12;;;;;;;5.50;4.25;;;;;;;27.67;47.46;98296.42;1771753;80;20991;-54
2021/07/30 09:39:40;;;;;;;4.80;4.30;;;;;;;27.67;47.45;98292.89;1768580;81;21587;-51
2021/07/30 09:42:14;;;;;;;4.72;4.33;;;;;;;27.66;47.42;98294.92;1771831;81;21022;-53
2021/07/30 09:44:59;;;;;;;4.85;4.35;;;;;;;27.65;47.41;98289.22;1774178;80;20939;-50
2021/07/30 09:47:27;;;;;;;6.22;4.28;;;;;;;27.65;47.35;98293.40;1781958;80;21038;-55
2021/07/30 09:49:58;;;;;;;5.95;4.47;;;;;;;27.66;47.38;98287.95;1778725;80;20986;-53
2021/07/30 09:52:33;;;;;;;4.90;4.47;;;;;;;27.69;47.17;98290.31;1777873;80;21437;-55
2021/07/30 09:55:00;;;;;;;4.75;4.20;;;;;;;27.68;47.11;98283.23;1778743;80;22020;-56
2021/07/30 09:57:32;;;;;;;4.78;4.37;;;;;;;27.67;47.09;98279.69;1783367;80;21022;-55
2021/07/30 09:59:59;;;;;;;4.67;4.20;;;;;;;27.67;47.09;98270.57;1779463;80;22065;-50
2021/07/30 10:02:27;;;;;;;4.67;4.28;;;;;;;27.67;47.06;98263.59;1778787;80;21547;-54
2021/07/30 10:04:54;;;;;;;4.60;3.92;;;;;;;27.68;47.05;98261.66;1782792;80;21511;-53
2021/07/30 10:07:21;;;;;;;5.10;4.53;;;;;;;27.71;47.09;98259.86;1781595;80;21077;-55
2021/07/30 10:09:57;;;;;;;4.72;4.33;;;;;;;27.75;47.08;98267.30;1781548;80;20923;-55
2021/07/30 10:12:21;;;;;;;4.60;4.20;;;;;;;27.77;46.82;98259.79;1781729;80;21050;-55
2021/07/30 10:14:47;;;;;;;5.03;4.63;;;;;;;27.78;46.88;98260.67;1780919;80;21128;-54
2021/07/30 10:17:15;;;;;;;4.80;4.30;;;;;;;27.79;46.94;98257.98;1783165;80;21562;-51
2021/07/30 10:19:42;;;;;;;4.78;4.20;;;;;;;27.81;46.98;98258.89;1783250;80;21384;-56
2021/07/30 10:22:08;;;;;;;4.58;4.17;;;;;;;27.82;46.69;98258.35;1781004;80;21128;-54
2021/07/30 10:24:36;;;;;;;4.42;4.03;;;;;;;27.80;46.77;98254.58;1781589;80;21303;-55
2021/07/30 10:27:03;;;;;;;4.60;4.12;;;;;;;27.79;46.81;98257.23;1778280;80;21108;-54
2021/07/30 10:30:04;;;;;;;5.47;4.25;;;;;;;27.78;46.96;98252.30;1781180;80;21546;-53
2021/07/30 10:32:54;;;;;;;4.95;4.55;;;;;;;27.77;46.98;98255.60;1781051;80;21578;-52
2021/07/30 10:35:30;;;;;;;4.65;4.25;;;;;;;27.76;46.95;98258.29;1774701;80;21007;-54
2021/07/30 10:38:19;;;;;;;4.40;4.00;;;;;;;27.76;46.90;98254.85;1781289;80;21558;-55
2021/07/30 10:41:09;;;;;;;4.53;4.10;;;;;;;27.74;46.91;98244.11;1779388;80;21330;-56
2021/07/30 10:44:03;;;;;;;5.05;4.40;;;;;;;27.71;46.91;98243.12;1781030;80;20970;-55
2021/07/30 10:46:29;;;;;;;5.05;4.08;;;;;;;27.71;46.84;98237.54;1782855;80;21065;-55
2021/07/30 10:48:56;;;;;;;4.75;4.12;;;;;;;27.70;46.76;98231.86;1785690;80;21002;-55
2021/07/30 10:51:28;;;;;;;4.28;3.87;;;;;;;27.71;46.67;98233.36;1786144;80;21583;-55
2021/07/30 10:54:04;;;;;;;4.40;4.00;;;;;;;27.72;46.63;98227.91;1783187;80;21747;-53
2021/07/30 10:56:33;;;;;;;4.65;4.25;;;;;;;27.73;46.65;98223.83;1785071;80;21072;-56
2021/07/30 10:59:04;;;;;;;3.70;3.40;;;;;;;27.73;46.65;98222.43;1786549;80;21006;-56
2021/07/30 11:01:39;;;;;;;4.15;3.77;;;;;;;27.73;46.64;98217.50;1784763;80;21057;-55
2021/07/30 11:04:05;;;;;;;4.58;3.90;;;;;;;27.74;46.60;98220.39;1783128;80;21038;-50
2021/07/30 11:06:42;;;;;;;4.45;4.05;;;;;;;27.75;46.55;98217.73;1790299;80;21108;-54
2021/07/30 11:09:12;;;;;;;4.67;4.28;;;;;;;27.76;46.55;98211.61;1788827;80;20986;-53
2021/07/30 11:11:46;;;;;;;4.47;4.08;;;;;;;27.78;46.31;98213.89;1784601;80;21446;-52
2021/07/30 11:14:24;;;;;;;4.30;3.90;;;;;;;27.79;46.37;98209.16;1782923;80;21025;-54
2021/07/30 11:17:00;;;;;;;4.30;3.90;;;;;;;27.79;46.41;98208.41;1784619;80;21049;-54
2021/07/30 11:19:28;;;;;;;4.50;3.87;;;;;;;27.81;46.31;98201.70;1783653;80;20997;-55
2021/07/30 11:21:54;;;;;;;5.58;4.30;;;;;;;27.83;45.87;98199.14;1785829;80;21053;-55
2021/07/30 11:24:20;;;;;;;5.30;4.33;;;;;;;27.83;45.69;98202.68;1781222;80;21581;-55
2021/07/30 11:26:46;;;;;;;5.27;3.73;;;;;;;27.85;45.49;98196.55;1785965;80;21335;-54
2021/07/30 11:29:17;;;;;;;5.80;3.98;;;;;;;27.85;45.46;98189.58;1759752;80;20959;-54
2021/07/30 11:32:05;;;;;;;6.78;4.60;;;;;;;27.85;45.48;98188.94;1784554;80;21109;-55
2021/07/30 11:34:38;;;;;;;4.83;4.28;;;;;;;27.87;45.58;98194.00;1785516;80;21518;-53
2021/07/30 11:37:08;;;;;;;5.17;4.47;;;;;;;27.86;45.67;98189.06;1780269;80;21076;-54
2021/07/30 11:39:45;;;;;;;5.70;4.37;;;;;;;27.88;45.76;98189.30;1787397;80;20954;-54